Time;durP1;ratioP1;P1;durP2;ratioP2;P2;SDS_P1;SDS_P2;PMS_P1;PMS_P2;Temp;Humidity;BMP_temperature;BMP_pressure;BME280_temperature;BME280_humidity;BME280_pressure;Samples;Min_cycle;Max_cycle;Signal;HPM_P1;HPM_P2
2023/07/28 00:00:08;;;;;;;52.42;13.50;;;;;;;;;;6149949;23;20006;-96
2023/07/28 00:02:37;;;;;;;45.70;13.68;;;;;;;;;;6162560;23;20064;-95
2023/07/28 00:05:05;;;;;;;66.05;15.52;;;;;;;;;;6137322;23;20403;-96
2023/07/28 00:07:33;;;;;;;54.08;12.73;;;;;;;;;;6137740;23;20014;-95
2023/07/28 00:10:03;;;;;;;60.60;13.75;;;;;;;;;;6138098;23;20032;-95
2023/07/28 00:12:32;;;;;;;71.80;15.98;;;;;;;;;;6137681;23;20009;-96
2023/07/28 00:15:01;;;;;;;55.08;12.98;;;;;;;;;;6161456;23;20041;-96
2023/07/28 00:17:34;;;;;;;69.55;15.77;;;;;;;;;;6160830;23;20001;-96
2023/07/28 00:20:12;;;;;;;57.70;14.65;;;;;;;;;;6161095;23;20081;-95
2023/07/28 00:22:39;;;;;;;56.88;15.05;;;;;;;;;;6139824;23;20542;-95
2023/07/28 00:25:12;;;;;;;57.78;15.05;;;;;;;;;;6138738;23;20013;-94
2023/07/28 00:27:38;;;;;;;56.78;15.45;;;;;;;;;;6138822;23;20368;-93
2023/07/28 00:33:01;;;;;;;51.97;16.20;;;;;;;;;;6165171;23;20024;-94
2023/07/28 00:35:31;;;;;;;58.65;15.57;;;;;;;;;;6163063;23;20020;-94
2023/07/28 00:38:04;;;;;;;53.53;16.08;;;;;;;;;;6140037;23;20078;-95
2023/07/28 00:40:30;;;;;;;61.88;16.52;;;;;;;;;;6164329;23;20005;-95
2023/07/28 00:43:20;;;;;;;54.38;16.02;;;;;;;;;;6164132;23;20009;-94
2023/07/28 00:45:46;;;;;;;58.25;15.30;;;;;;;;;;6162607;23;20447;-94
2023/07/28 00:48:13;;;;;;;59.97;16.45;;;;;;;;;;6138782;23;20013;-94
2023/07/28 00:50:44;;;;;;;60.65;16.33;;;;;;;;;;6163337;23;20020;-94
2023/07/28 00:53:15;;;;;;;57.05;14.95;;;;;;;;;;6163960;23;20028;-94
2023/07/28 00:55:45;;;;;;;51.08;16.45;;;;;;;;;;6170295;22;20064;-93
2023/07/28 00:58:19;;;;;;;49.55;16.00;;;;;;;;;;6175837;22;20021;-94
2023/07/28 01:01:14;;;;;;;63.35;17.08;;;;;;;;;;6144246;23;20033;-92
2023/07/28 01:03:40;;;;;;;55.00;14.20;;;;;;;;;;6171026;23;20013;-96
2023/07/28 01:06:06;;;;;;;60.85;16.50;;;;;;;;;;6149471;23;20005;-95
2023/07/28 01:08:52;;;;;;;61.10;15.48;;;;;;;;;;6173740;23;20002;-95
2023/07/28 01:11:22;;;;;;;53.13;14.65;;;;;;;;;;6171346;23;20010;-96
2023/07/28 01:13:48;;;;;;;72.25;15.63;;;;;;;;;;6165062;23;20013;-96
2023/07/28 01:16:35;;;;;;;55.42;15.88;;;;;;;;;;6163204;23;20016;-95
2023/07/28 01:19:07;;;;;;;58.15;14.95;;;;;;;;;;6147352;23;20007;-95
2023/07/28 01:21:34;;;;;;;64.50;15.98;;;;;;;;;;6162131;23;20044;-96
2023/07/28 01:24:16;;;;;;;61.25;14.90;;;;;;;;;;6138050;23;20152;-95
2023/07/28 01:26:46;;;;;;;66.53;16.90;;;;;;;;;;6162089;23;20345;-95
2023/07/28 01:29:14;;;;;;;66.03;16.65;;;;;;;;;;6162191;23;20013;-95
2023/07/28 01:31:41;;;;;;;54.40;16.60;;;;;;;;;;6163442;23;20013;-95
2023/07/28 01:34:07;;;;;;;69.97;17.27;;;;;;;;;;6163904;23;20344;-96
2023/07/28 01:36:33;;;;;;;66.85;17.45;;;;;;;;;;6163585;23;20621;-96
2023/07/28 01:39:00;;;;;;;70.22;17.67;;;;;;;;;;6162506;23;20029;-95
2023/07/28 01:41:26;;;;;;;64.75;18.33;;;;;;;;;;6162288;23;19998;-94
2023/07/28 01:44:01;;;;;;;68.32;17.88;;;;;;;;;;6138311;23;20021;-95
2023/07/28 01:46:28;;;;;;;61.78;17.85;;;;;;;;;;6164086;23;20037;-95
2023/07/28 01:48:54;;;;;;;87.57;20.02;;;;;;;;;;6141591;23;20441;-95
2023/07/28 01:51:35;;;;;;;68.97;18.70;;;;;;;;;;6142146;23;20020;-95
2023/07/28 01:54:04;;;;;;;67.00;16.90;;;;;;;;;;6174274;23;20010;-94
2023/07/28 01:56:31;;;;;;;61.47;15.68;;;;;;;;;;6166590;22;20008;-96
2023/07/28 01:58:57;;;;;;;57.28;16.02;;;;;;;;;;6212549;23;19992;-95
2023/07/28 02:01:26;;;;;;;60.15;15.57;;;;;;;;;;6212748;23;20023;-95
2023/07/28 02:03:55;;;;;;;50.40;15.02;;;;;;;;;;6213529;23;20013;-95
2023/07/28 02:06:22;;;;;;;58.58;15.30;;;;;;;;;;6212269;23;20051;-95
2023/07/28 02:08:54;;;;;;;58.63;14.27;;;;;;;;;;6212674;23;20004;-94
2023/07/28 02:11:26;;;;;;;53.40;14.95;;;;;;;;;;6207520;23;20020;-94
2023/07/28 02:13:53;;;;;;;46.72;11.73;;;;;;;;;;6204845;23;20012;-96
2023/07/28 02:16:19;;;;;;;43.60;10.75;;;;;;;;;;6204399;23;20008;-96
2023/07/28 02:18:45;;;;;;;53.08;12.15;;;;;;;;;;6200919;23;20024;-95
2023/07/28 02:21:13;;;;;;;39.53;12.00;;;;;;;;;;6199906;23;20019;-96
2023/07/28 02:23:39;;;;;;;40.47;11.15;;;;;;;;;;6199228;23;20008;-96
2023/07/28 02:26:05;;;;;;;39.63;11.82;;;;;;;;;;6198565;23;20005;-95
2023/07/28 02:28:34;;;;;;;41.83;12.00;;;;;;;;;;6198270;23;20071;-96
2023/07/28 02:31:03;;;;;;;37.42;12.43;;;;;;;;;;6202249;23;20011;-95
2023/07/28 02:33:40;;;;;;;42.53;13.55;;;;;;;;;;6199198;23;20004;-96
2023/07/28 02:36:28;;;;;;;46.00;13.18;;;;;;;;;;6199583;23;20025;-96
2023/07/28 02:39:00;;;;;;;54.60;13.63;;;;;;;;;;6197166;23;20050;-95
2023/07/28 02:41:28;;;;;;;52.63;14.88;;;;;;;;;;6198375;23;20008;-95
2023/07/28 02:44:00;;;;;;;64.57;15.20;;;;;;;;;;6198698;23;20008;-96
2023/07/28 02:46:36;;;;;;;;;;;;;;;;;;;;;
2023/07/28 02:49:08;;;;;;;77.18;16.98;;;;;;;;;;6200968;23;20043;-96
2023/07/28 02:51:34;;;;;;;60.30;16.80;;;;;;;;;;6198887;23;20008;-96
2023/07/28 02:54:07;;;;;;;67.03;16.58;;;;;;;;;;6171948;23;20013;-96
2023/07/28 02:56:51;;;;;;;74.25;16.02;;;;;;;;;;6199201;22;20020;-96
2023/07/28 02:59:18;;;;;;;60.42;16.88;;;;;;;;;;6197024;23;20011;-95
2023/07/28 03:01:45;;;;;;;56.65;17.33;;;;;;;;;;6197867;23;20064;-96
2023/07/28 03:04:12;;;;;;;69.57;16.73;;;;;;;;;;6198105;23;20020;-95
2023/07/28 03:06:57;;;;;;;;;;;;;;;;;;;;;
2023/07/28 03:09:24;;;;;;;65.78;18.27;;;;;;;;;;6224212;23;20039;-96
2023/07/28 03:11:53;;;;;;;70.82;18.02;;;;;;;;;;6196388;23;20008;-96
2023/07/28 03:14:22;;;;;;;59.35;18.45;;;;;;;;;;6198437;23;20020;-96
2023/07/28 03:16:49;;;;;;;73.93;18.35;;;;;;;;;;6197784;23;20019;-96
2023/07/28 03:19:17;;;;;;;64.90;17.08;;;;;;;;;;6197787;23;20004;-96
2023/07/28 03:21:45;;;;;;;77.78;19.10;;;;;;;;;;6196896;23;20005;-96
2023/07/28 03:24:14;;;;;;;77.50;18.45;;;;;;;;;;6195363;23;20512;-96
2023/07/28 03:26:46;;;;;;;76.45;18.52;;;;;;;;;;6196156;23;20013;-96
2023/07/28 03:29:12;;;;;;;65.22;16.85;;;;;;;;;;6195870;23;20369;-95
2023/07/28 03:31:38;;;;;;;65.70;16.58;;;;;;;;;;6197093;23;20067;-96
2023/07/28 03:34:20;;;;;;;76.22;17.15;;;;;;;;;;6203160;23;20039;-96
2023/07/28 03:36:49;;;;;;;57.03;16.17;;;;;;;;;;6173990;23;20008;-95
2023/07/28 03:39:42;;;;;;;70.32;16.77;;;;;;;;;;6196987;23;20486;-96
2023/07/28 03:42:14;;;;;;;63.35;14.98;;;;;;;;;;6197212;23;20032;-96
2023/07/28 03:44:41;;;;;;;51.92;14.63;;;;;;;;;;6198094;23;20023;-96
2023/07/28 03:47:08;;;;;;;52.47;15.73;;;;;;;;;;6198115;23;20012;-96
2023/07/28 03:49:34;;;;;;;62.97;15.15;;;;;;;;;;6171893;23;20017;-96
2023/07/28 03:52:04;;;;;;;49.28;13.95;;;;;;;;;;6197546;23;20023;-96
2023/07/28 03:55:06;;;;;;;45.85;14.52;;;;;;;;;;6197584;23;20015;-95
2023/07/28 04:00:37;;;;;;;58.67;11.65;;;;;;;;;;6079390;23;20074;-95
2023/07/28 04:06:11;;;;;;;36.42;10.13;;;;;;;;;;6089605;23;20010;-96
2023/07/28 04:08:41;;;;;;;50.28;11.75;;;;;;;;;;6114863;23;20013;-96
2023/07/28 04:11:30;;;;;;;47.60;11.27;;;;;;;;;;6163406;23;20020;-94
2023/07/28 04:14:06;;;;;;;40.08;12.60;;;;;;;;;;6078622;23;20034;-95
2023/07/28 04:16:41;;;;;;;47.65;11.70;;;;;;;;;;6157777;23;20178;-95
2023/07/28 04:19:24;;;;;;;;;;;;;;;;;;;;;
2023/07/28 04:21:57;;;;;;;42.13;10.77;;;;;;;;;;6165487;23;20021;-95
2023/07/28 04:24:56;;;;;;;33.92;10.55;;;;;;;;;;6165930;23;20009;-96
2023/07/28 04:27:56;;;;;;;;;;;;;;;;;;;;;
2023/07/28 04:30:55;;;;;;;52.47;11.15;;;;;;;;;;6136862;23;20463;-96
2023/07/28 04:33:25;;;;;;;42.80;10.52;;;;;;;;;;6141403;23;20010;-96
2023/07/28 04:35:51;;;;;;;40.33;9.98;;;;;;;;;;6165856;23;19998;-96
2023/07/28 04:38:18;;;;;;;32.10;7.95;;;;;;;;;;6139279;23;20045;-95
2023/07/28 04:41:14;;;;;;;37.03;11.15;;;;;;;;;;6165959;23;20025;-96
2023/07/28 04:43:41;;;;;;;47.33;10.75;;;;;;;;;;6166446;23;20010;-96
2023/07/28 04:46:10;;;;;;;41.15;10.18;;;;;;;;;;6138478;23;20016;-96
2023/07/28 04:48:50;;;;;;;42.28;9.93;;;;;;;;;;6164053;23;20033;-95
2023/07/28 04:51:20;;;;;;;28.05;8.32;;;;;;;;;;6141790;23;20013;-96
2023/07/28 04:53:56;;;;;;;42.85;10.50;;;;;;;;;;6139515;23;20347;-95
2023/07/28 04:56:22;;;;;;;31.45;8.73;;;;;;;;;;6164094;23;20041;-94
2023/07/28 04:58:58;;;;;;;41.00;10.57;;;;;;;;;;6170266;23;20466;-96
2023/07/28 05:01:37;;;;;;;;;;;;;;;;;;;;;
2023/07/28 05:04:04;;;;;;;29.15;9.50;;;;;;;;;;6194501;23;20039;-96
2023/07/28 05:06:32;;;;;;;36.00;10.55;;;;;;;;;;6193164;23;20009;-95
2023/07/28 05:09:02;;;;;;;25.73;8.60;;;;;;;;;;6169201;23;20013;-95
2023/07/28 05:11:28;;;;;;;25.77;9.73;;;;;;;;;;6167877;23;20020;-95
2023/07/28 05:13:55;;;;;;;24.40;9.65;;;;;;;;;;6192573;23;20028;-95
2023/07/28 05:16:21;;;;;;;32.83;9.43;;;;;;;;;;6170633;23;20383;-94
2023/07/28 05:18:52;;;;;;;34.08;9.95;;;;;;;;;;6197807;23;20017;-95
2023/07/28 05:24:05;;;;;;;30.17;9.23;;;;;;;;;;6204075;23;20023;-94
2023/07/28 05:26:34;;;;;;;30.20;9.57;;;;;;;;;;6203786;23;20039;-95
2023/07/28 05:29:01;;;;;;;30.75;9.30;;;;;;;;;;6202111;23;20017;-96
2023/07/28 05:31:27;;;;;;;31.33;10.00;;;;;;;;;;6178756;23;20024;-96
2023/07/28 05:33:53;;;;;;;38.35;9.80;;;;;;;;;;6176682;23;20036;-95
2023/07/28 05:36:24;;;;;;;32.88;9.30;;;;;;;;;;6200438;23;20005;-95
2023/07/28 05:39:30;;;;;;;29.85;8.18;;;;;;;;;;6176300;23;20020;-95
2023/07/28 05:41:55;;;;;;;30.98;8.07;;;;;;;;;;6202732;23;19993;-96
2023/07/28 05:44:21;;;;;;;16.17;7.57;;;;;;;;;;6180770;23;20116;-96
2023/07/28 05:46:56;;;;;;;23.38;8.00;;;;;;;;;;6203284;23;20005;-96
2023/07/28 05:49:24;;;;;;;39.60;8.25;;;;;;;;;;6178210;23;20013;-96
2023/07/28 05:51:50;;;;;;;27.77;9.05;;;;;;;;;;6171087;23;20099;-96
2023/07/28 05:54:16;;;;;;;28.65;8.88;;;;;;;;;;6170514;23;20013;-96
2023/07/28 05:56:50;;;;;;;28.33;8.75;;;;;;;;;;6171150;22;20013;-96
2023/07/28 05:59:16;;;;;;;31.27;9.13;;;;;;;;;;6201683;23;20068;-96
2023/07/28 06:01:45;;;;;;;16.52;7.45;;;;;;;;;;6221382;23;20005;-96
2023/07/28 06:04:14;;;;;;;22.88;8.73;;;;;;;;;;6195857;23;20104;-96
2023/07/28 06:06:40;;;;;;;28.88;8.70;;;;;;;;;;6219508;23;20009;-94
2023/07/28 06:09:07;;;;;;;24.02;8.50;;;;;;;;;;6225673;23;20005;-95
2023/07/28 06:11:33;;;;;;;20.85;8.70;;;;;;;;;;6222493;23;20063;-96
2023/07/28 06:14:00;;;;;;;28.02;8.88;;;;;;;;;;6222165;23;20013;-96
2023/07/28 06:16:29;;;;;;;13.93;7.80;;;;;;;;;;6202379;23;20024;-96
2023/07/28 06:19:23;;;;;;;;;;;;;;;;;;;;;
2023/07/28 06:21:45;;;;;;;19.77;8.52;;;;;;;;;;6220262;23;20446;-95
2023/07/28 06:24:11;;;;;;;26.13;7.82;;;;;;;;;;6202800;23;20009;-95
2023/07/28 06:26:56;;;;;;;28.88;8.73;;;;;;;;;;6208329;23;20008;-96
2023/07/28 06:29:29;;;;;;;20.33;7.40;;;;;;;;;;6209514;23;20012;-96
2023/07/28 06:32:35;;;;;;;;;;;;;;;;;;;;;
2023/07/28 06:35:05;;;;;;;;;;;;;;;;;;6232199;23;20004;-96
2023/07/28 06:40:53;;;;;;;14.68;7.38;;;;;;;;;;6187591;23;20055;-96
2023/07/28 06:45:55;;;;;;;;;;;;;;;;;;6172953;23;20084;-89
2023/07/28 06:48:25;;;;;;;18.90;7.82;;;;;;;;;;6166345;23;19900;-88
2023/07/28 06:51:02;;;;;;;16.08;6.88;;;;;;;;;;6190171;23;20009;-87
2023/07/28 06:53:30;;;;;;;16.67;8.15;;;;;;;;;;6180798;23;20095;-87
2023/07/28 06:56:05;;;;;;;16.77;8.32;;;;;;;;;;6183023;23;20009;-87
2023/07/28 06:58:37;;;;;;;15.27;7.53;;;;;;;;;;6190782;23;20013;-90
2023/07/28 07:01:03;;;;;;;14.23;8.40;;;;;;;;;;6184372;23;20061;-87
2023/07/28 07:03:43;;;;;;;20.80;8.73;;;;;;;;;;6183170;23;20064;-88
2023/07/28 07:06:09;;;;;;;18.73;9.60;;;;;;;;;;6165663;23;20006;-87
2023/07/28 07:08:35;;;;;;;23.30;9.85;;;;;;;;;;6185554;23;20037;-89
2023/07/28 07:11:01;;;;;;;19.52;9.65;;;;;;;;;;6156993;23;20002;-89
2023/07/28 07:13:27;;;;;;;16.25;9.77;;;;;;;;;;6160500;23;20005;-87
2023/07/28 07:15:53;;;;;;;15.38;7.90;;;;;;;;;;6182900;23;20009;-87
2023/07/28 07:18:24;;;;;;;14.57;8.07;;;;;;;;;;6183844;23;20036;-87
2023/07/28 07:20:50;;;;;;;14.35;7.60;;;;;;;;;;6181169;23;20067;-88
2023/07/28 07:23:16;;;;;;;16.20;7.45;;;;;;;;;;6183733;23;20394;-88
2023/07/28 07:25:42;;;;;;;15.13;7.57;;;;;;;;;;6183397;23;20565;-86
2023/07/28 07:28:10;;;;;;;9.68;6.30;;;;;;;;;;6161416;23;20009;-87
2023/07/28 07:30:36;;;;;;;8.18;6.40;;;;;;;;;;6182671;23;20014;-87
2023/07/28 07:33:11;;;;;;;10.07;6.55;;;;;;;;;;6183404;23;20021;-88
2023/07/28 07:35:38;;;;;;;11.07;6.82;;;;;;;;;;6182143;23;20009;-87
2023/07/28 07:38:09;;;;;;;9.15;6.90;;;;;;;;;;6184666;23;20037;-86
2023/07/28 07:40:37;;;;;;;10.13;6.20;;;;;;;;;;6159789;23;20352;-88
2023/07/28 07:43:20;;;;;;;9.18;5.80;;;;;;;;;;6189093;23;20051;-86
2023/07/28 07:45:47;;;;;;;9.35;6.15;;;;;;;;;;6140014;23;20025;-91
2023/07/28 07:48:22;;;;;;;10.93;6.22;;;;;;;;;;6170682;23;20041;-87
2023/07/28 07:51:18;;;;;;;12.10;6.10;;;;;;;;;;6150452;23;20005;-91
2023/07/28 07:53:45;;;;;;;10.30;5.40;;;;;;;;;;6158883;23;20020;-91
2023/07/28 07:56:12;;;;;;;7.50;6.00;;;;;;;;;;6189161;23;20029;-92
2023/07/28 07:58:38;;;;;;;8.52;5.50;;;;;;;;;;6186411;23;20068;-93
2023/07/28 08:01:04;;;;;;;8.63;6.22;;;;;;;;;;6160957;23;20343;-93
2023/07/28 08:03:38;;;;;;;9.40;6.13;;;;;;;;;;6186884;23;20010;-91
2023/07/28 08:06:09;;;;;;;9.75;6.22;;;;;;;;;;6186061;23;20006;-88
2023/07/28 08:08:59;;;;;;;9.68;5.47;;;;;;;;;;6161099;23;20005;-94
2023/07/28 08:11:25;;;;;;;9.48;5.53;;;;;;;;;;6161485;23;20036;-89
2023/07/28 08:13:51;;;;;;;8.80;6.05;;;;;;;;;;6160949;23;20009;-94
2023/07/28 08:16:27;;;;;;;11.35;5.90;;;;;;;;;;6162360;23;20033;-94
2023/07/28 08:18:53;;;;;;;;;;;;;;;;;;6187141;23;20079;-94
2023/07/28 08:21:35;;;;;;;7.85;5.15;;;;;;;;;;6191240;23;19900;-94
2023/07/28 08:24:24;;;;;;;8.52;4.50;;;;;;;;;;6172358;23;20020;-92
2023/07/28 08:27:01;;;;;;;9.00;4.78;;;;;;;;;;6164868;23;20012;-93
2023/07/28 08:29:27;;;;;;;7.13;5.47;;;;;;;;;;6160844;23;20029;-92
2023/07/28 08:31:53;;;;;;;8.02;5.03;;;;;;;;;;6187517;23;20089;-92
2023/07/28 08:34:25;;;;;;;7.28;4.97;;;;;;;;;;6165541;23;20005;-93
2023/07/28 08:36:51;;;;;;;7.43;5.18;;;;;;;;;;6186033;23;20037;-94
2023/07/28 08:39:21;;;;;;;7.03;5.20;;;;;;;;;;6189540;23;20016;-93
2023/07/28 08:41:47;;;;;;;11.18;5.07;;;;;;;;;;6166191;23;20009;-93
2023/07/28 08:44:16;;;;;;;7.32;4.97;;;;;;;;;;6192246;23;20020;-92
2023/07/28 08:46:44;;;;;;;6.53;4.28;;;;;;;;;;6165666;23;20017;-93
2023/07/28 08:49:31;;;;;;;6.03;4.60;;;;;;;;;;6164948;23;20257;-93
2023/07/28 08:51:58;;;;;;;5.65;4.70;;;;;;;;;;6192100;23;20067;-93
2023/07/28 08:54:26;;;;;;;5.95;5.00;;;;;;;;;;6166310;23;20041;-92
2023/07/28 08:57:01;;;;;;;7.35;4.18;;;;;;;;;;6167165;23;20014;-92
2023/07/28 08:59:29;;;;;;;6.10;4.20;;;;;;;;;;6194828;23;20033;-93
2023/07/28 09:02:34;;;;;;;6.97;4.70;;;;;;;;;;6160698;23;20024;-93
2023/07/28 09:05:07;;;;;;;5.28;4.07;;;;;;;;;;6169092;23;20006;-93
2023/07/28 09:07:37;;;;;;;4.35;3.28;;;;;;;;;;6168558;23;20024;-93
2023/07/28 09:10:05;;;;;;;5.32;4.05;;;;;;;;;;6166045;23;20049;-93
2023/07/28 09:12:46;;;;;;;4.65;3.83;;;;;;;;;;6192912;23;20057;-93
2023/07/28 09:15:16;;;;;;;7.22;3.72;;;;;;;;;;6169545;23;20021;-93
2023/07/28 09:17:54;;;;;;;5.47;3.72;;;;;;;;;;6171948;23;20035;-94
2023/07/28 09:20:24;;;;;;;5.50;4.28;;;;;;;;;;6172852;23;20010;-93
2023/07/28 09:26:15;;;;;;;5.88;3.03;;;;;;;;;;6082892;23;20017;-93
2023/07/28 09:29:02;;;;;;;4.20;2.88;;;;;;;;;;6101579;23;20009;-92
2023/07/28 09:31:36;;;;;;;9.52;2.90;;;;;;;;;;6172995;23;20005;-93
2023/07/28 09:34:05;;;;;;;2.95;2.65;;;;;;;;;;6113858;23;20011;-92
2023/07/28 09:37:02;;;;;;;4.13;2.67;;;;;;;;;;6093244;23;20006;-93
2023/07/28 09:42:15;;;;;;;3.58;3.10;;;;;;;;;;6066614;23;20078;-93
2023/07/28 09:44:50;;;;;;;5.13;3.10;;;;;;;;;;6091919;23;20025;-93
2023/07/28 09:47:35;;;;;;;5.47;3.03;;;;;;;;;;6090617;23;20099;-93
2023/07/28 09:50:35;;;;;;;3.25;2.70;;;;;;;;;;6092842;23;20481;-92
2023/07/28 09:53:04;;;;;;;3.60;2.20;;;;;;;;;;6073452;23;20011;-93
2023/07/28 09:55:50;;;;;;;2.38;2.17;;;;;;;;;;6085929;23;20461;-92
2023/07/28 09:58:27;;;;;;;2.58;1.77;;;;;;;;;;6092885;23;20026;-93
2023/07/28 10:00:57;;;;;;;3.75;2.13;;;;;;;;;;6085037;23;20003;-92
2023/07/28 10:06:39;;;;;;;2.70;1.95;;;;;;;;;;6101964;23;20003;-94
2023/07/28 10:09:21;;;;;;;;;;;;;;;;;;;;;
2023/07/28 10:12:01;;;;;;;2.10;1.85;;;;;;;;;;6112621;23;20084;-94
2023/07/28 10:14:47;;;;;;;2.72;2.25;;;;;;;;;;6139163;23;20005;-94
2023/07/28 10:17:17;;;;;;;5.35;2.45;;;;;;;;;;6201516;23;20054;-93
2023/07/28 10:19:52;;;;;;;5.05;2.38;;;;;;;;;;6171543;23;20018;-93
2023/07/28 10:22:19;;;;;;;4.47;2.50;;;;;;;;;;6171082;23;20040;-94
2023/07/28 10:25:10;;;;;;;2.63;2.00;;;;;;;;;;6198441;23;20010;-94
2023/07/28 10:28:26;;;;;;;4.03;2.45;;;;;;;;;;6205561;22;20039;-92
2023/07/28 10:31:00;;;;;;;2.78;2.50;;;;;;;;;;6210885;23;20028;-93
2023/07/28 10:33:38;;;;;;;8.83;2.90;;;;;;;;;;6200579;23;20044;-94
2023/07/28 10:36:32;;;;;;;3.67;3.08;;;;;;;;;;6204925;23;20038;-94
2023/07/28 10:39:03;;;;;;;4.95;2.53;;;;;;;;;;6200708;23;20005;-93
2023/07/28 10:44:46;;;;;;;3.50;3.08;;;;;;;;;;6140842;23;20014;-93
2023/07/28 10:50:04;;;;;;;3.42;2.33;;;;;;;;;;6139128;23;20030;-93
2023/07/28 10:52:32;;;;;;;2.72;1.92;;;;;;;;;;6189724;23;20012;-94
2023/07/28 10:55:06;;;;;;;3.53;2.17;;;;;;;;;;6202371;23;20076;-94
2023/07/28 10:57:33;;;;;;;3.70;2.30;;;;;;;;;;6200634;23;20083;-93
2023/07/28 11:09:06;;;;;;;3.40;2.10;;;;;;;;;;6112141;23;20006;-96
2023/07/28 14:32:44;;;;;;;3.60;1.90;;;;;;;;;;6169416;23;20064;-96
2023/07/28 14:35:11;;;;;;;2.25;2.05;;;;;;;;;;6164446;23;20017;-96
2023/07/28 14:37:37;;;;;;;5.45;2.45;;;;;;;;;;6140500;23;20021;-95
2023/07/28 14:43:19;;;;;;;6.70;1.92;;;;;;;;;;6080532;23;20055;-94
2023/07/28 14:45:46;;;;;;;3.78;2.60;;;;;;;;;;6078143;23;20010;-89
2023/07/28 14:48:12;;;;;;;3.92;2.50;;;;;;;;;;6049934;23;20746;-91
2023/07/28 14:50:38;;;;;;;2.40;1.98;;;;;;;;;;6050407;23;20018;-92
2023/07/28 14:53:24;;;;;;;2.92;2.00;;;;;;;;;;6048053;23;20015;-92
2023/07/28 14:55:53;;;;;;;;;;;;;;;;;;6074517;23;20035;-96
2023/07/28 14:58:26;;;;;;;2.25;1.88;;;;;;;;;;6072743;23;19921;-95
2023/07/28 15:01:11;;;;;;;3.65;2.08;;;;;;;;;;6045610;23;20007;-93
2023/07/28 15:03:37;;;;;;;5.35;3.05;;;;;;;;;;6046489;23;20007;-88
2023/07/28 15:09:59;;;;;;;;;;;;;;;;;;;;;
2023/07/28 15:19:02;;;;;;;;;;;;;;;;;;;;;
2023/07/28 15:21:33;;;;;;;3.38;2.33;;;;;;;;;;6011324;23;20032;-89
2023/07/28 15:23:59;;;;;;;3.70;1.95;;;;;;;;;;5992210;23;20073;-92
2023/07/28 15:37:03;;;;;;;3.65;2.17;;;;;;;;;;5882239;24;20052;-96
2023/07/28 15:39:35;;;;;;;3.28;1.92;;;;;;;;;;5861752;24;20082;-94
2023/07/28 15:42:03;;;;;;;3.25;2.30;;;;;;;;;;5964792;24;20016;-93
2023/07/28 15:44:30;;;;;;;3.03;2.17;;;;;;;;;;5990647;23;20016;-93
2023/07/28 15:47:05;;;;;;;4.97;2.22;;;;;;;;;;6036763;23;20006;-93
2023/07/28 15:49:51;;;;;;;6.28;2.33;;;;;;;;;;6159313;23;20024;-93
2023/07/28 15:52:17;;;;;;;4.95;2.38;;;;;;;;;;6165930;23;20005;-92
2023/07/28 15:54:47;;;;;;;5.20;2.40;;;;;;;;;;6140908;23;20020;-92
2023/07/28 15:57:19;;;;;;;5.97;2.10;;;;;;;;;;6165771;23;20212;-94
2023/07/28 15:59:48;;;;;;;4.15;2.28;;;;;;;;;;6162570;23;20017;-93
2023/07/28 16:02:34;;;;;;;4.05;2.92;;;;;;;;;;6165648;23;20001;-92
2023/07/28 16:05:00;;;;;;;10.88;3.22;;;;;;;;;;6114988;23;20068;-91
2023/07/28 16:07:28;;;;;;;3.63;2.30;;;;;;;;;;6139580;23;20013;-90
2023/07/28 16:09:58;;;;;;;5.97;1.95;;;;;;;;;;6164556;23;20017;-91
2023/07/28 16:12:45;;;;;;;5.93;1.83;;;;;;;;;;6163434;23;20002;-90
2023/07/28 16:15:11;;;;;;;3.67;2.70;;;;;;;;;;6166488;23;20017;-92
2023/07/28 16:17:38;;;;;;;5.32;3.13;;;;;;;;;;6170387;23;20013;-91
2023/07/28 16:20:13;;;;;;;4.82;2.90;;;;;;;;;;6147476;23;20009;-88
2023/07/28 16:22:46;;;;;;;10.75;3.65;;;;;;;;;;6174405;23;20056;-88
2023/07/28 16:25:51;;;;;;;3.83;2.53;;;;;;;;;;6144553;23;20313;-91
2023/07/28 16:28:44;;;;;;;6.53;2.83;;;;;;;;;;6109628;23;19994;-90
2023/07/28 16:31:13;;;;;;;3.92;2.70;;;;;;;;;;6176374;23;20024;-89
2023/07/28 16:48:16;;;;;;;6.05;3.80;;;;;;;;;;6272729;22;20063;-92
2023/07/28 16:54:23;;;;;;;;;;;;;;;;;;;;;
2023/07/28 17:48:21;;;;;;;9.48;4.90;;;;;;;;;;6282756;22;20018;-93
2023/07/28 17:51:29;;;;;;;10.52;4.43;;;;;;;;;;6294938;22;20027;-93
2023/07/28 18:08:44;;;;;;;5.93;4.30;;;;;;;;;;6272018;22;20049;-94
2023/07/28 18:11:21;;;;;;;9.68;4.03;;;;;;;;;;6259546;22;20014;-94
2023/07/28 18:13:47;;;;;;;5.32;4.10;;;;;;;;;;6258896;22;20007;-93
2023/07/28 18:16:24;;;;;;;10.38;4.32;;;;;;;;;;6286675;22;20088;-93
2023/07/28 18:18:50;;;;;;;7.72;4.35;;;;;;;;;;6237475;22;20046;-93
2023/07/28 18:21:17;;;;;;;4.90;3.88;;;;;;;;;;6235451;22;20008;-93
2023/07/28 18:23:44;;;;;;;6.18;3.97;;;;;;;;;;6261012;22;20020;-93
2023/07/28 18:26:10;;;;;;;6.45;3.92;;;;;;;;;;6233522;22;20034;-93
2023/07/28 18:28:58;;;;;;;10.32;5.05;;;;;;;;;;6259533;22;19999;-93
2023/07/28 18:31:23;;;;;;;6.10;4.90;;;;;;;;;;6263074;22;20007;-93
2023/07/28 18:33:50;;;;;;;9.80;4.50;;;;;;;;;;6258101;22;19996;-94
2023/07/28 18:36:31;;;;;;;;;;;;;;;;;;;;;
2023/07/28 18:39:00;;;;;;;7.20;4.47;;;;;;;;;;6262806;22;20023;-93
2023/07/28 18:45:23;;;;;;;;;;;;;;;;;;;;;
2023/07/28 18:48:23;;;;;;;;;;;;;;;;;;;;;
2023/07/28 18:50:56;;;;;;;5.57;4.28;;;;;;;;;;6137101;23;20043;-92
2023/07/28 18:53:22;;;;;;;8.63;5.03;;;;;;;;;;6162015;23;20012;-92
2023/07/28 18:55:56;;;;;;;11.02;5.68;;;;;;;;;;6192241;22;20363;-91
2023/07/28 19:27:44;;;;;;;7.15;3.92;;;;;;;;;;6254221;22;20063;-93
2023/07/28 19:30:17;;;;;;;7.05;4.60;;;;;;;;;;6202889;22;20024;-93
2023/07/28 19:32:43;;;;;;;6.70;3.92;;;;;;;;;;6224793;23;20019;-93
2023/07/28 19:35:29;;;;;;;6.30;4.22;;;;;;;;;;6199058;23;20342;-92
2023/07/28 19:44:17;;;;;;;9.07;4.18;;;;;;;;;;6220980;23;20231;-92
2023/07/28 19:47:04;;;;;;;8.00;4.25;;;;;;;;;;6210640;23;20055;-92
2023/07/28 19:53:10;;;;;;;;;;;;;;;;;;;;;
2023/07/28 20:11:14;;;;;;;8.48;5.28;;;;;;;;;;6108264;23;20013;-96
2023/07/28 20:16:42;;;;;;;9.80;6.10;;;;;;;;;;6032470;23;20473;-95
2023/07/28 20:19:11;;;;;;;13.57;6.53;;;;;;;;;;6132420;23;20091;-95
2023/07/28 20:21:46;;;;;;;8.85;5.03;;;;;;;;;;6169802;23;20009;-96
2023/07/28 20:24:54;;;;;;;7.82;4.63;;;;;;;;;;6219890;23;20035;-95
2023/07/28 20:27:35;;;;;;;9.50;5.60;;;;;;;;;;6195003;23;20058;-95
2023/07/28 20:30:14;;;;;;;11.02;5.20;;;;;;;;;;6200150;22;20016;-95
2023/07/28 20:33:00;;;;;;;8.18;5.20;;;;;;;;;;6173477;23;20020;-96
2023/07/28 20:35:36;;;;;;;8.25;5.03;;;;;;;;;;6195235;23;20055;-95
2023/07/28 20:38:11;;;;;;;11.00;5.55;;;;;;;;;;6197519;23;20016;-96
2023/07/28 20:40:46;;;;;;;10.15;5.50;;;;;;;;;;6174443;23;20047;-96
2023/07/28 20:43:13;;;;;;;14.68;5.60;;;;;;;;;;6170349;23;20063;-95
2023/07/28 20:45:45;;;;;;;9.57;4.82;;;;;;;;;;6222473;23;20012;-95
2023/07/28 20:48:12;;;;;;;8.88;4.60;;;;;;;;;;6203463;23;20023;-96
2023/07/28 20:53:32;;;;;;;7.85;3.92;;;;;;;;;;6219606;23;20012;-95
2023/07/28 20:56:05;;;;;;;6.30;4.25;;;;;;;;;;6203771;23;20027;-95
2023/07/28 20:58:31;;;;;;;14.90;4.80;;;;;;;;;;6229063;23;20039;-95
2023/07/28 21:01:03;;;;;;;6.28;4.57;;;;;;;;;;6225336;23;20100;-95
2023/07/28 21:03:30;;;;;;;7.97;4.18;;;;;;;;;;6225285;23;20035;-96
2023/07/28 21:05:59;;;;;;;7.43;4.75;;;;;;;;;;6224162;23;20016;-96
2023/07/28 21:08:27;;;;;;;6.25;4.22;;;;;;;;;;6201826;23;20016;-95
2023/07/28 21:10:57;;;;;;;5.10;3.75;;;;;;;;;;6201928;23;20008;-96
2023/07/28 21:13:26;;;;;;;8.05;4.28;;;;;;;;;;6224741;23;20015;-96
2023/07/28 21:16:00;;;;;;;7.47;4.03;;;;;;;;;;6230407;23;20054;-96
2023/07/28 21:18:35;;;;;;;8.98;4.00;;;;;;;;;;6206630;23;20014;-96
2023/07/28 21:21:06;;;;;;;8.82;3.97;;;;;;;;;;6227239;23;20004;-96
2023/07/28 21:23:33;;;;;;;11.15;4.32;;;;;;;;;;6225274;23;20696;-95
2023/07/28 21:26:00;;;;;;;6.72;4.25;;;;;;;;;;6201438;23;20007;-95
2023/07/28 21:28:26;;;;;;;7.95;4.90;;;;;;;;;;6225127;23;20496;-96
2023/07/28 21:30:52;;;;;;;7.82;4.90;;;;;;;;;;6217997;22;20490;-96
2023/07/28 21:33:22;;;;;;;7.28;4.63;;;;;;;;;;6169944;23;20031;-95
2023/07/28 21:35:48;;;;;;;12.27;5.13;;;;;;;;;;6171583;23;20358;-95
2023/07/28 21:41:01;;;;;;;8.05;4.78;;;;;;;;;;6199168;23;20009;-96
2023/07/28 21:43:29;;;;;;;9.15;5.80;;;;;;;;;;6193666;23;20013;-95
2023/07/28 21:45:56;;;;;;;9.13;6.30;;;;;;;;;;6169973;23;20084;-96
2023/07/28 21:48:30;;;;;;;10.05;6.55;;;;;;;;;;6195474;23;20012;-96
2023/07/28 21:50:56;;;;;;;10.40;6.47;;;;;;;;;;6195640;23;19992;-95
2023/07/28 21:53:23;;;;;;;11.75;7.28;;;;;;;;;;6194958;23;20012;-95
2023/07/28 21:55:49;;;;;;;11.35;6.07;;;;;;;;;;6193190;23;20009;-95
2023/07/28 21:58:19;;;;;;;8.82;5.88;;;;;;;;;;6169673;23;20645;-94
